Home   Weather   Belgium   Brussels   Past weeks
Flag for Belgium

Past Weather in Brussels, Belgium — Yesterday and Last 2 Weeks

Currently: 75 °F. Passing clouds. (Weather station: Brussels National Airport, Belgium). See more current weather

Past Weather in Brussels — Graph

°F

Brussels Temperature Yesterday

Maximum temperature yesterday: 72 °F (at 3:20 pm)
Minimum temperature yesterday: 46 °F (at 4:20 am)
Average temperature yesterday: 61 °F

High & Low Weather Summary for the Past Weeks

 TemperatureHumidityPressure
High90 °F (Aug 3, 4:20 pm)94% (Jul 24, 4:20 am)30.39 "Hg (Jul 24, 4:20 am)
Low46 °F (Aug 6, 4:20 am)29% (Aug 7, 3:20 pm)29.80 "Hg (Jul 25, 5:20 am)
Average68 °F62%30.07 "Hg
* Reported Jul 23 4:20 pm — Aug 7 4:50 pm, Brussels. Weather by CustomWeather, © 2022

Note: Actual official high and low records may vary slightly from our data, if they occured in-between our weather recording intervals... More about our weather records

Brussels Weather History for the Previous 24 Hours

Scroll right to see more
 ConditionsComfort  
Time TempWeatherWind HumidityBarometerVisibility
4:50 pm
Sun, Aug 7
75 °FPassing clouds.7 mph29%30.24 "HgN/A
4:20 pm75 °FPassing clouds.5 mph31%30.24 "HgN/A
3:50 pm75 °FPassing clouds.6 mph29%30.24 "HgN/A
3:20 pm75 °FPassing clouds.7 mph29%30.24 "HgN/A
2:50 pm73 °FPassing clouds.5 mph33%30.27 "HgN/A
2:20 pm72 °FSunny.5 mph36%30.27 "Hg10 mi
1:50 pm72 °FSunny.5 mph38%30.27 "Hg10 mi
1:20 pm72 °FPassing clouds.6 mph38%30.27 "HgN/A
12:20 pm70 °FPassing clouds.3 mph43%30.30 "HgN/A
11:50 am70 °FPassing clouds.7 mph43%30.30 "HgN/A
11:20 am68 °FPassing clouds.3 mph49%30.30 "HgN/A
10:50 am66 °FPassing clouds.5 mph56%30.30 "HgN/A
10:20 am66 °FPassing clouds.3 mph60%30.30 "HgN/A
9:20 am61 °FPassing clouds.5 mph68%30.30 "HgN/A
8:50 am59 °FSunny.6 mph77%30.30 "Hg10 mi
8:20 am57 °FPassing clouds.5 mph77%30.30 "HgN/A
7:50 am55 °FSunny.2 mph82%30.30 "Hg10 mi
7:20 am54 °FSunny.1 mph88%30.30 "Hg10 mi
6:50 am52 °FPassing clouds.3 mph94%30.30 "HgN/A
6:20 am50 °FSunny.3 mph76%30.30 "Hg10 mi
5:50 am50 °FClear.1 mph88%30.30 "Hg10 mi
5:20 am50 °FClear.1 mph94%30.30 "Hg10 mi
4:50 am52 °FClear.1 mph82%30.30 "Hg10 mi
4:20 am52 °FClear.2 mph82%30.30 "Hg10 mi
3:50 am50 °FClear.No wind88%30.30 "Hg10 mi
3:20 am52 °FClear.2 mph82%30.30 "Hg10 mi
2:50 am52 °FClear.1 mph77%30.33 "Hg10 mi
1:20 am54 °FClear.2 mph72%30.33 "Hg10 mi
12:50 am54 °FClear.2 mph67%30.33 "Hg10 mi
12:20 am54 °FClear.1 mph77%30.33 "Hg10 mi
11:50 pm
Sat, Aug 6
55 °FClear.2 mph72%30.33 "Hg10 mi
11:20 pm55 °FClear.3 mph67%30.33 "Hg10 mi
10:50 pm59 °FClear.6 mph59%30.33 "Hg10 mi
10:20 pm61 °FClear.7 mph52%30.33 "Hg10 mi
9:50 pm61 °FClear.7 mph55%30.33 "Hg10 mi
9:20 pm61 °FClear.5 mph55%30.33 "Hg10 mi
8:50 pm64 °FSunny.6 mph46%30.33 "Hg10 mi
8:20 pm70 °FSunny.6 mph38%30.30 "Hg10 mi
7:50 pm68 °FSunny.5 mph40%30.30 "Hg10 mi
7:20 pm70 °FPassing clouds.7 mph35%30.30 "HgN/A
6:50 pm72 °FPassing clouds.5 mph33%30.33 "HgN/A
6:20 pm70 °FPassing clouds.3 mph38%30.33 "HgN/A
Weather by CustomWeather, © 2022

See weather overview